sensor_id;sensor_type;location;lat;lon;timestamp;pressure;altitude;pressure_sealevel;temperature;humidity
13695;BME280;6919;52.344;14.518;2024-03-22T00:01:02;101198.44;;;11.20;100.00
13695;BME280;6919;52.344;14.518;2024-03-22T00:03:28;101193.75;;;11.22;100.00
13695;BME280;6919;52.344;14.518;2024-03-22T00:05:56;101204.09;;;11.08;100.00
13695;BME280;6919;52.344;14.518;2024-03-22T00:08:23;101191.94;;;10.94;100.00
13695;BME280;6919;52.344;14.518;2024-03-22T00:10:52;101195.34;;;10.96;100.00
13695;BME280;6919;52.344;14.518;2024-03-22T00:13:19;101192.38;;;10.99;100.00
13695;BME280;6919;52.344;14.518;2024-03-22T00:15:47;101198.16;;;11.04;100.00
13695;BME280;6919;52.344;14.518;2024-03-22T00:18:13;101189.41;;;11.02;100.00
13695;BME280;6919;52.344;14.518;2024-03-22T00:20:41;101195.88;;;11.00;100.00
13695;BME280;6919;52.344;14.518;2024-03-22T00:23:08;101182.34;;;10.82;100.00
13695;BME280;6919;52.344;14.518;2024-03-22T00:25:36;101188.53;;;10.73;100.00
13695;BME280;6919;52.344;14.518;2024-03-22T00:28:08;101179.66;;;10.54;100.00
13695;BME280;6919;52.344;14.518;2024-03-22T00:30:36;101179.78;;;10.43;100.00
13695;BME280;6919;52.344;14.518;2024-03-22T00:33:04;101178.94;;;10.42;100.00
13695;BME280;6919;52.344;14.518;2024-03-22T00:35:32;101180.03;;;10.30;100.00
13695;BME280;6919;52.344;14.518;2024-03-22T00:37:59;101182.84;;;10.19;100.00
13695;BME280;6919;52.344;14.518;2024-03-22T00:40:29;101180.88;;;10.21;100.00
13695;BME280;6919;52.344;14.518;2024-03-22T00:42:56;101180.88;;;10.21;100.00
13695;BME280;6919;52.344;14.518;2024-03-22T00:45:26;101173.66;;;10.12;100.00
13695;BME280;6919;52.344;14.518;2024-03-22T00:47:52;101175.44;;;10.02;100.00
13695;BME280;6919;52.344;14.518;2024-03-22T00:50:23;101171.59;;;9.95;100.00
13695;BME280;6919;52.344;14.518;2024-03-22T00:52:50;101166.97;;;9.97;100.00
13695;BME280;6919;52.344;14.518;2024-03-22T00:55:20;101170.31;;;9.90;100.00
13695;BME280;6919;52.344;14.518;2024-03-22T00:57:47;101167.63;;;9.90;100.00
13695;BME280;6919;52.344;14.518;2024-03-22T01:00:16;101163.78;;;9.73;100.00
13695;BME280;6919;52.344;14.518;2024-03-22T01:02:44;101166.19;;;9.76;100.00
13695;BME280;6919;52.344;14.518;2024-03-22T01:05:12;101164.41;;;9.86;100.00
13695;BME280;6919;52.344;14.518;2024-03-22T01:07:44;101160.31;;;9.82;100.00
13695;BME280;6919;52.344;14.518;2024-03-22T01:10:13;101154.94;;;9.82;100.00
13695;BME280;6919;52.344;14.518;2024-03-22T01:12:42;101159.59;;;9.90;100.00
13695;BME280;6919;52.344;14.518;2024-03-22T01:15:12;101159.47;;;9.91;100.00
13695;BME280;6919;52.344;14.518;2024-03-22T01:17:39;101160.56;;;9.79;100.00
13695;BME280;6919;52.344;14.518;2024-03-22T01:20:09;101149.72;;;9.81;100.00
13695;BME280;6919;52.344;14.518;2024-03-22T01:22:36;101152.84;;;9.95;100.00
13695;BME280;6919;52.344;14.518;2024-03-22T01:25:04;101155.25;;;9.89;100.00
13695;BME280;6919;52.344;14.518;2024-03-22T01:27:31;101155.25;;;9.98;100.00
13695;BME280;6919;52.344;14.518;2024-03-22T01:29:59;101162.03;;;10.02;100.00
13695;BME280;6919;52.344;14.518;2024-03-22T01:32:26;101156.44;;;10.15;100.00
13695;BME280;6919;52.344;14.518;2024-03-22T01:34:56;101150.53;;;10.11;100.00
13695;BME280;6919;52.344;14.518;2024-03-22T01:37:24;101158.13;;;10.06;100.00
13695;BME280;6919;52.344;14.518;2024-03-22T01:39:52;101156.19;;;10.18;100.00
13695;BME280;6919;52.344;14.518;2024-03-22T01:42:19;101155.38;;;10.27;100.00
13695;BME280;6919;52.344;14.518;2024-03-22T01:44:48;101164.81;;;10.21;100.00
13695;BME280;6919;52.344;14.518;2024-03-22T01:47:15;101147.88;;;10.30;100.00
13695;BME280;6919;52.344;14.518;2024-03-22T01:49:43;101152.81;;;10.25;100.00
13695;BME280;6919;52.344;14.518;2024-03-22T01:52:10;101152.16;;;10.42;100.00
13695;BME280;6919;52.344;14.518;2024-03-22T01:54:40;101154.56;;;10.45;100.00
13695;BME280;6919;52.344;14.518;2024-03-22T01:57:06;101152.13;;;9.84;100.00
13695;BME280;6919;52.344;14.518;2024-03-22T01:59:35;101145.81;;;10.04;100.00
13695;BME280;6919;52.344;14.518;2024-03-22T02:02:02;101140.28;;;10.35;100.00
13695;BME280;6919;52.344;14.518;2024-03-22T02:04:30;101135.19;;;10.23;100.00
13695;BME280;6919;52.344;14.518;2024-03-22T02:06:56;101138.56;;;10.15;100.00
13695;BME280;6919;52.344;14.518;2024-03-22T02:09:24;101138.03;;;9.82;100.00
13695;BME280;6919;52.344;14.518;2024-03-22T02:11:53;101135.22;;;9.93;100.00
13695;BME280;6919;52.344;14.518;2024-03-22T02:14:20;101133.91;;;9.78;100.00
13695;BME280;6919;52.344;14.518;2024-03-22T02:16:47;101123.81;;;9.91;100.00
13695;BME280;6919;52.344;14.518;2024-03-22T02:19:14;101111.41;;;9.99;100.00
13695;BME280;6919;52.344;14.518;2024-03-22T02:21:41;101107.81;;;10.10;100.00
13695;BME280;6919;52.344;14.518;2024-03-22T02:24:10;101115.16;;;10.36;100.00
13695;BME280;6919;52.344;14.518;2024-03-22T02:26:37;101113.94;;;10.01;100.00
13695;BME280;6919;52.344;14.518;2024-03-22T02:29:05;101114.38;;;9.96;100.00
13695;BME280;6919;52.344;14.518;2024-03-22T02:31:31;101102.28;;;10.02;100.00
13695;BME280;6919;52.344;14.518;2024-03-22T02:33:59;101101.00;;;9.96;100.00
13695;BME280;6919;52.344;14.518;2024-03-22T02:36:27;101091.09;;;9.87;100.00
13695;BME280;6919;52.344;14.518;2024-03-22T02:38:55;101093.66;;;9.98;100.00
13695;BME280;6919;52.344;14.518;2024-03-22T02:41:23;101091.88;;;10.08;100.00
13695;BME280;6919;52.344;14.518;2024-03-22T02:43:51;101085.13;;;9.74;100.00
13695;BME280;6919;52.344;14.518;2024-03-22T02:46:18;101080.63;;;9.75;100.00
13695;BME280;6919;52.344;14.518;2024-03-22T02:48:45;101073.00;;;9.80;100.00
13695;BME280;6919;52.344;14.518;2024-03-22T02:51:12;101080.66;;;9.84;100.00
13695;BME280;6919;52.344;14.518;2024-03-22T02:53:40;101076.00;;;9.86;100.00
13695;BME280;6919;52.344;14.518;2024-03-22T02:56:07;101069.91;;;9.75;100.00
13695;BME280;6919;52.344;14.518;2024-03-22T02:58:37;101080.38;;;9.87;100.00
13695;BME280;6919;52.344;14.518;2024-03-22T03:01:04;101077.97;;;9.84;100.00
13695;BME280;6919;52.344;14.518;2024-03-22T03:03:32;101079.38;;;9.88;100.00
13695;BME280;6919;52.344;14.518;2024-03-22T03:05:59;101075.56;;;9.81;100.00
13695;BME280;6919;52.344;14.518;2024-03-22T03:08:26;101065.28;;;9.77;100.00
13695;BME280;6919;52.344;14.518;2024-03-22T03:10:56;101063.75;;;9.93;100.00
13695;BME280;6919;52.344;14.518;2024-03-22T03:13:24;101058.66;;;9.90;100.00
13695;BME280;6919;52.344;14.518;2024-03-22T03:15:52;101063.75;;;9.93;100.00
13695;BME280;6919;52.344;14.518;2024-03-22T03:18:20;101051.78;;;9.97;100.00
13695;BME280;6919;52.344;14.518;2024-03-22T03:20:46;101047.09;;;9.99;100.00
13695;BME280;6919;52.344;14.518;2024-03-22T03:23:15;101052.19;;;9.93;100.00
13695;BME280;6919;52.344;14.518;2024-03-22T03:25:43;101045.00;;;9.93;100.00
13695;BME280;6919;52.344;14.518;2024-03-22T03:28:10;101051.19;;;9.84;100.00
13695;BME280;6919;52.344;14.518;2024-03-22T03:30:39;101047.06;;;9.61;100.00
13695;BME280;6919;52.344;14.518;2024-03-22T03:33:08;101039.19;;;9.69;100.00
13695;BME280;6919;52.344;14.518;2024-03-22T03:35:36;101041.59;;;9.91;100.00
13695;BME280;6919;52.344;14.518;2024-03-22T03:38:03;101040.66;;;9.92;100.00
13695;BME280;6919;52.344;14.518;2024-03-22T03:40:31;101043.16;;;9.84;100.00
13695;BME280;6919;52.344;14.518;2024-03-22T03:42:59;101038.94;;;10.01;100.00
13695;BME280;6919;52.344;14.518;2024-03-22T03:45:28;101036.38;;;9.90;100.00
13695;BME280;6919;52.344;14.518;2024-03-22T03:47:55;101028.63;;;9.87;100.00
13695;BME280;6919;52.344;14.518;2024-03-22T03:50:24;101029.63;;;9.95;100.00
13695;BME280;6919;52.344;14.518;2024-03-22T03:52:51;101021.03;;;9.92;100.00
13695;BME280;6919;52.344;14.518;2024-03-22T03:55:18;101013.13;;;9.90;100.00
13695;BME280;6919;52.344;14.518;2024-03-22T03:57:45;101008.50;;;9.92;100.00
13695;BME280;6919;52.344;14.518;2024-03-22T04:00:13;101003.56;;;9.97;100.00
13695;BME280;6919;52.344;14.518;2024-03-22T04:02:40;100997.78;;;10.02;100.00
13695;BME280;6919;52.344;14.518;2024-03-22T04:05:08;100992.13;;;9.95;100.00
13695;BME280;6919;52.344;14.518;2024-03-22T04:07:36;100987.22;;;10.00;100.00
13695;BME280;6919;52.344;14.518;2024-03-22T04:10:06;100985.22;;;10.02;100.00
13695;BME280;6919;52.344;14.518;2024-03-22T04:12:32;100985.50;;;9.99;100.00
13695;BME280;6919;52.344;14.518;2024-03-22T04:15:00;100974.66;;;9.82;100.00
13695;BME280;6919;52.344;14.518;2024-03-22T04:17:27;100979.44;;;9.78;100.00
13695;BME280;6919;52.344;14.518;2024-03-22T04:19:54;100970.28;;;9.90;100.00
13695;BME280;6919;52.344;14.518;2024-03-22T04:22:21;100969.00;;;9.85;100.00
13695;BME280;6919;52.344;14.518;2024-03-22T04:24:51;100968.16;;;9.84;100.00
13695;BME280;6919;52.344;14.518;2024-03-22T04:27:17;100963.06;;;9.72;100.00
13695;BME280;6919;52.344;14.518;2024-03-22T04:29:47;100960.53;;;9.70;100.00
13695;BME280;6919;52.344;14.518;2024-03-22T04:32:14;100959.84;;;9.78;100.00
13695;BME280;6919;52.344;14.518;2024-03-22T04:34:42;100956.31;;;9.77;100.00
13695;BME280;6919;52.344;14.518;2024-03-22T04:37:09;100957.44;;;9.84;100.00
13695;BME280;6919;52.344;14.518;2024-03-22T04:39:38;100958.31;;;9.75;100.00
13695;BME280;6919;52.344;14.518;2024-03-22T04:42:07;100957.75;;;9.91;100.00
13695;BME280;6919;52.344;14.518;2024-03-22T04:44:35;100952.81;;;9.86;100.00
13695;BME280;6919;52.344;14.518;2024-03-22T04:47:01;100958.56;;;9.91;100.00
13695;BME280;6919;52.344;14.518;2024-03-22T04:49:29;100958.44;;;9.93;100.00
13695;BME280;6919;52.344;14.518;2024-03-22T04:51:57;100950.81;;;9.88;100.00
13695;BME280;6919;52.344;14.518;2024-03-22T04:54:25;100949.69;;;10.00;100.00
13695;BME280;6919;52.344;14.518;2024-03-22T04:56:51;100943.06;;;9.95;100.00
13695;BME280;6919;52.344;14.518;2024-03-22T04:59:21;100939.81;;;10.01;100.00
13695;BME280;6919;52.344;14.518;2024-03-22T05:01:47;100932.06;;;9.88;100.00
13695;BME280;6919;52.344;14.518;2024-03-22T05:04:15;100929.53;;;9.96;100.00
13695;BME280;6919;52.344;14.518;2024-03-22T05:06:41;100922.63;;;10.03;100.00
13695;BME280;6919;52.344;14.518;2024-03-22T05:09:09;100913.16;;;9.99;100.00
13695;BME280;6919;52.344;14.518;2024-03-22T05:11:36;100907.53;;;10.02;100.00
13695;BME280;6919;52.344;14.518;2024-03-22T05:14:04;100909.38;;;10.11;100.00
13695;BME280;6919;52.344;14.518;2024-03-22T05:16:32;100902.59;;;10.17;100.00
13695;BME280;6919;52.344;14.518;2024-03-22T05:18:59;100910.06;;;10.13;100.00
13695;BME280;6919;52.344;14.518;2024-03-22T05:21:26;100915.13;;;10.35;100.00
13695;BME280;6919;52.344;14.518;2024-03-22T05:23:54;100900.28;;;10.41;100.00
13695;BME280;6919;52.344;14.518;2024-03-22T05:26:20;100899.75;;;10.28;100.00
13695;BME280;6919;52.344;14.518;2024-03-22T05:28:49;100903.84;;;10.32;100.00
13695;BME280;6919;52.344;14.518;2024-03-22T05:31:15;100897.94;;;10.28;100.00
13695;BME280;6919;52.344;14.518;2024-03-22T05:33:44;100900.41;;;10.49;100.00
13695;BME280;6919;52.344;14.518;2024-03-22T05:36:11;100905.22;;;10.36;100.00
13695;BME280;6919;52.344;14.518;2024-03-22T05:38:38;100905.78;;;10.39;100.00
13695;BME280;6919;52.344;14.518;2024-03-22T05:41:05;100906.63;;;10.49;100.00
13695;BME280;6919;52.344;14.518;2024-03-22T05:43:33;100909.31;;;10.49;100.00
13695;BME280;6919;52.344;14.518;2024-03-22T05:46:01;100903.47;;;10.54;100.00
13695;BME280;6919;52.344;14.518;2024-03-22T05:48:32;100898.44;;;10.51;100.00
13695;BME280;6919;52.344;14.518;2024-03-22T05:51:03;100895.75;;;10.51;100.00
13695;BME280;6919;52.344;14.518;2024-03-22T05:53:31;100895.47;;;10.44;100.00
13695;BME280;6919;52.344;14.518;2024-03-22T05:55:57;100886.75;;;10.42;100.00
13695;BME280;6919;52.344;14.518;2024-03-22T05:58:25;100885.88;;;10.42;100.00
13695;BME280;6919;52.344;14.518;2024-03-22T06:00:52;100881.81;;;10.38;100.00
13695;BME280;6919;52.344;14.518;2024-03-22T06:03:20;100885.22;;;10.30;100.00
13695;BME280;6919;52.344;14.518;2024-03-22T06:05:47;100881.25;;;10.44;100.00
13695;BME280;6919;52.344;14.518;2024-03-22T06:08:17;100875.22;;;10.59;100.00
13695;BME280;6919;52.344;14.518;2024-03-22T06:10:46;100857.59;;;10.57;100.00
13695;BME280;6919;52.344;14.518;2024-03-22T06:13:14;100858.13;;;10.70;100.00
13695;BME280;6919;52.344;14.518;2024-03-22T06:15:42;100856.28;;;10.70;100.00
13695;BME280;6919;52.344;14.518;2024-03-22T06:18:11;100863.56;;;10.78;100.00
13695;BME280;6919;52.344;14.518;2024-03-22T06:20:38;100857.31;;;10.87;100.00
13695;BME280;6919;52.344;14.518;2024-03-22T06:23:06;100857.69;;;10.74;100.00
13695;BME280;6919;52.344;14.518;2024-03-22T06:25:35;100862.91;;;10.66;100.00
13695;BME280;6919;52.344;14.518;2024-03-22T06:28:03;100863.41;;;10.79;100.00
13695;BME280;6919;52.344;14.518;2024-03-22T06:30:29;100850.44;;;10.84;100.00
13695;BME280;6919;52.344;14.518;2024-03-22T06:32:57;100856.56;;;10.94;100.00
13695;BME280;6919;52.344;14.518;2024-03-22T06:35:24;100851.66;;;10.90;100.00
13695;BME280;6919;52.344;14.518;2024-03-22T06:37:51;100852.56;;;10.81;100.00
13695;BME280;6919;52.344;14.518;2024-03-22T06:40:19;100840.78;;;10.91;100.00
13695;BME280;6919;52.344;14.518;2024-03-22T06:42:48;100841.47;;;10.93;100.00
13695;BME280;6919;52.344;14.518;2024-03-22T06:45:15;100832.28;;;11.13;100.00
13695;BME280;6919;52.344;14.518;2024-03-22T06:47:42;100823.16;;;11.24;100.00
13695;BME280;6919;52.344;14.518;2024-03-22T06:50:09;100810.81;;;11.13;100.00
13695;BME280;6919;52.344;14.518;2024-03-22T06:52:37;100813.88;;;11.18;100.00
13695;BME280;6919;52.344;14.518;2024-03-22T06:55:05;100804.69;;;11.21;100.00
13695;BME280;6919;52.344;14.518;2024-03-22T06:57:32;100793.88;;;11.30;100.00
13695;BME280;6919;52.344;14.518;2024-03-22T07:00:01;100805.59;;;11.29;100.00
13695;BME280;6919;52.344;14.518;2024-03-22T07:02:29;100807.69;;;11.35;100.00
13695;BME280;6919;52.344;14.518;2024-03-22T07:04:56;100792.88;;;11.31;100.00
13695;BME280;6919;52.344;14.518;2024-03-22T07:07:24;100796.34;;;11.41;100.00
13695;BME280;6919;52.344;14.518;2024-03-22T07:09:51;100798.78;;;11.52;100.00
13695;BME280;6919;52.344;14.518;2024-03-22T07:12:18;100798.38;;;11.47;100.00
13695;BME280;6919;52.344;14.518;2024-03-22T07:14:45;100807.22;;;11.40;100.00
13695;BME280;6919;52.344;14.518;2024-03-22T07:17:14;100803.84;;;11.38;100.00
13695;BME280;6919;52.344;14.518;2024-03-22T07:19:41;100806.75;;;11.62;100.00
13695;BME280;6919;52.344;14.518;2024-03-22T07:22:09;100797.16;;;11.42;100.00
13695;BME280;6919;52.344;14.518;2024-03-22T07:24:36;100797.53;;;11.64;100.00
13695;BME280;6919;52.344;14.518;2024-03-22T07:27:04;100801.09;;;11.65;100.00
13695;BME280;6919;52.344;14.518;2024-03-22T07:29:30;100801.13;;;11.91;100.00
13695;BME280;6919;52.344;14.518;2024-03-22T07:31:58;100803.78;;;11.91;100.00
13695;BME280;6919;52.344;14.518;2024-03-22T07:34:26;100805.38;;;12.01;100.00
13695;BME280;6919;52.344;14.518;2024-03-22T07:36:53;100805.28;;;11.67;100.00
13695;BME280;6919;52.344;14.518;2024-03-22T07:39:20;100802.59;;;11.67;100.00
13695;BME280;6919;52.344;14.518;2024-03-22T07:41:50;100791.63;;;11.43;100.00
13695;BME280;6919;52.344;14.518;2024-03-22T07:44:16;100790.41;;;11.55;100.00
13695;BME280;6919;52.344;14.518;2024-03-22T07:46:46;100794.88;;;11.47;100.00
13695;BME280;6919;52.344;14.518;2024-03-22T07:49:13;100782.25;;;11.47;100.00
13695;BME280;6919;52.344;14.518;2024-03-22T07:51:42;100777.34;;;11.60;100.00
13695;BME280;6919;52.344;14.518;2024-03-22T07:54:09;100772.31;;;12.09;100.00
13695;BME280;6919;52.344;14.518;2024-03-22T07:56:37;100765.63;;;12.13;100.00
13695;BME280;6919;52.344;14.518;2024-03-22T07:59:03;100773.59;;;12.30;100.00
13695;BME280;6919;52.344;14.518;2024-03-22T08:01:31;100764.16;;;12.26;100.00
13695;BME280;6919;52.344;14.518;2024-03-22T08:03:57;100765.47;;;12.14;100.00
13695;BME280;6919;52.344;14.518;2024-03-22T08:06:25;100765.03;;;12.27;100.00
13695;BME280;6919;52.344;14.518;2024-03-22T08:08:53;100764.44;;;11.81;100.00
13695;BME280;6919;52.344;14.518;2024-03-22T08:11:21;100771.97;;;11.60;100.00
13695;BME280;6919;52.344;14.518;2024-03-22T08:13:48;100768.44;;;11.77;100.00
13695;BME280;6919;52.344;14.518;2024-03-22T08:16:15;100771.63;;;12.07;100.00
13695;BME280;6919;52.344;14.518;2024-03-22T08:18:42;100776.56;;;12.19;100.00
13695;BME280;6919;52.344;14.518;2024-03-22T08:21:09;100769.25;;;12.37;100.00
13695;BME280;6919;52.344;14.518;2024-03-22T08:23:36;100766.03;;;11.92;100.00
13695;BME280;6919;52.344;14.518;2024-03-22T08:26:05;100775.00;;;12.42;100.00
13695;BME280;6919;52.344;14.518;2024-03-22T08:28:32;100773.88;;;12.19;100.00
13695;BME280;6919;52.344;14.518;2024-03-22T08:31:04;100775.00;;;12.42;100.00
13695;BME280;6919;52.344;14.518;2024-03-22T08:33:30;100775.19;;;12.41;100.00
13695;BME280;6919;52.344;14.518;2024-03-22T08:35:58;100770.56;;;12.75;100.00
13695;BME280;6919;52.344;14.518;2024-03-22T08:38:25;100771.03;;;12.54;100.00
13695;BME280;6919;52.344;14.518;2024-03-22T08:40:53;100771.44;;;12.75;100.00
13695;BME280;6919;52.344;14.518;2024-03-22T08:43:21;100766.38;;;12.72;100.00
13695;BME280;6919;52.344;14.518;2024-03-22T08:45:52;100766.84;;;12.68;100.00
13695;BME280;6919;52.344;14.518;2024-03-22T08:48:18;100755.25;;;12.67;100.00
13695;BME280;6919;52.344;14.518;2024-03-22T08:50:46;100753.91;;;12.63;100.00
13695;BME280;6919;52.344;14.518;2024-03-22T08:53:12;100751.34;;;12.54;100.00
13695;BME280;6919;52.344;14.518;2024-03-22T08:55:45;100745.50;;;12.25;100.00
13695;BME280;6919;52.344;14.518;2024-03-22T08:58:13;100747.47;;;12.15;100.00
13695;BME280;6919;52.344;14.518;2024-03-22T09:00:43;100746.34;;;12.17;100.00
13695;BME280;6919;52.344;14.518;2024-03-22T09:03:10;100742.97;;;12.23;100.00
13695;BME280;6919;52.344;14.518;2024-03-22T09:05:37;100735.19;;;12.54;100.00
13695;BME280;6919;52.344;14.518;2024-03-22T09:08:04;100727.66;;;12.57;100.00
13695;BME280;6919;52.344;14.518;2024-03-22T09:10:32;100713.47;;;13.05;100.00
13695;BME280;6919;52.344;14.518;2024-03-22T09:12:59;100704.06;;;13.17;100.00
13695;BME280;6919;52.344;14.518;2024-03-22T09:15:27;100708.56;;;13.40;100.00
13695;BME280;6919;52.344;14.518;2024-03-22T09:17:55;100709.91;;;12.96;100.00
13695;BME280;6919;52.344;14.518;2024-03-22T09:20:23;100698.19;;;13.13;100.00
13695;BME280;6919;52.344;14.518;2024-03-22T09:22:49;100692.94;;;13.28;100.00
13695;BME280;6919;52.344;14.518;2024-03-22T09:25:17;100702.84;;;13.59;100.00
13695;BME280;6919;52.344;14.518;2024-03-22T09:27:44;100702.50;;;13.54;100.00
13695;BME280;6919;52.344;14.518;2024-03-22T09:30:13;100697.31;;;13.45;100.00
13695;BME280;6919;52.344;14.518;2024-03-22T09:32:39;100694.78;;;13.35;100.00
13695;BME280;6919;52.344;14.518;2024-03-22T09:35:10;100696.06;;;13.71;100.00
13695;BME280;6919;52.344;14.518;2024-03-22T09:37:38;100689.94;;;13.93;100.00
13695;BME280;6919;52.344;14.518;2024-03-22T09:40:06;100676.84;;;13.90;100.00
13695;BME280;6919;52.344;14.518;2024-03-22T09:42:34;100671.03;;;14.09;100.00
13695;BME280;6919;52.344;14.518;2024-03-22T09:45:08;100658.75;;;14.07;100.00
13695;BME280;6919;52.344;14.518;2024-03-22T09:47:37;100653.59;;;14.20;100.00
13695;BME280;6919;52.344;14.518;2024-03-22T09:50:08;100643.44;;;14.38;100.00
13695;BME280;6919;52.344;14.518;2024-03-22T09:52:36;100645.19;;;14.31;100.00
13695;BME280;6919;52.344;14.518;2024-03-22T09:55:06;100644.00;;;14.17;100.00
13695;BME280;6919;52.344;14.518;2024-03-22T09:57:35;100647.66;;;14.40;100.00
13695;BME280;6919;52.344;14.518;2024-03-22T10:00:07;100648.47;;;14.41;100.00
13695;BME280;6919;52.344;14.518;2024-03-22T10:02:34;100651.31;;;14.47;100.00
13695;BME280;6919;52.344;14.518;2024-03-22T10:05:02;100645.09;;;14.00;100.00
13695;BME280;6919;52.344;14.518;2024-03-22T10:07:30;100638.28;;;14.20;100.00
13695;BME280;6919;52.344;14.518;2024-03-22T10:09:58;100638.66;;;13.63;100.00
13695;BME280;6919;52.344;14.518;2024-03-22T10:12:25;100634.69;;;13.43;100.00
13695;BME280;6919;52.344;14.518;2024-03-22T10:14:53;100633.28;;;13.71;100.00
13695;BME280;6919;52.344;14.518;2024-03-22T10:17:20;100629.72;;;13.70;100.00
13695;BME280;6919;52.344;14.518;2024-03-22T10:19:49;100624.53;;;13.61;100.00
13695;BME280;6919;52.344;14.518;2024-03-22T10:22:17;100618.66;;;13.57;100.00
13695;BME280;6919;52.344;14.518;2024-03-22T10:24:46;100611.59;;;13.95;100.00
13695;BME280;6919;52.344;14.518;2024-03-22T10:27:12;100613.41;;;13.72;100.00
13695;BME280;6919;52.344;14.518;2024-03-22T10:29:40;100618.75;;;13.80;100.00
13695;BME280;6919;52.344;14.518;2024-03-22T10:32:09;100625.25;;;13.93;100.00
13695;BME280;6919;52.344;14.518;2024-03-22T10:34:37;100630.22;;;14.12;100.00
13695;BME280;6919;52.344;14.518;2024-03-22T10:37:06;100622.03;;;13.98;100.00
13695;BME280;6919;52.344;14.518;2024-03-22T10:39:35;100615.53;;;14.23;100.00
13695;BME280;6919;52.344;14.518;2024-03-22T10:42:05;100625.28;;;14.32;100.00
13695;BME280;6919;52.344;14.518;2024-03-22T10:44:33;100635.41;;;14.52;100.00
13695;BME280;6919;52.344;14.518;2024-03-22T10:47:02;100626.25;;;14.61;100.00
13695;BME280;6919;52.344;14.518;2024-03-22T10:49:34;100616.78;;;14.65;100.00
13695;BME280;6919;52.344;14.518;2024-03-22T10:52:04;100615.28;;;14.63;100.00
13695;BME280;6919;52.344;14.518;2024-03-22T10:54:36;100612.91;;;15.05;100.00
13695;BME280;6919;52.344;14.518;2024-03-22T10:57:10;100614.97;;;14.58;100.00
13695;BME280;6919;52.344;14.518;2024-03-22T10:59:41;100600.09;;;14.39;100.00
13695;BME280;6919;52.344;14.518;2024-03-22T11:02:11;100591.81;;;14.41;100.00
13695;BME280;6919;52.344;14.518;2024-03-22T11:04:38;100584.47;;;14.95;100.00
13695;BME280;6919;52.344;14.518;2024-03-22T11:07:06;100586.84;;;14.75;100.00
13695;BME280;6919;52.344;14.518;2024-03-22T11:09:34;100582.41;;;14.82;100.00
13695;BME280;6919;52.344;14.518;2024-03-22T11:12:01;100579.09;;;14.49;100.00
13695;BME280;6919;52.344;14.518;2024-03-22T11:14:32;100574.31;;;14.59;100.00
13695;BME280;6919;52.344;14.518;2024-03-22T11:16:59;100569.16;;;14.73;100.00
13695;BME280;6919;52.344;14.518;2024-03-22T11:19:27;100558.78;;;14.99;100.00
13695;BME280;6919;52.344;14.518;2024-03-22T11:21:54;100557.53;;;15.09;100.00
13695;BME280;6919;52.344;14.518;2024-03-22T11:24:23;100549.78;;;15.21;100.00
13695;BME280;6919;52.344;14.518;2024-03-22T11:26:50;100538.38;;;15.48;100.00
13695;BME280;6919;52.344;14.518;2024-03-22T11:29:17;100532.34;;;15.09;100.00
13695;BME280;6919;52.344;14.518;2024-03-22T11:31:45;100534.13;;;15.31;100.00
13695;BME280;6919;52.344;14.518;2024-03-22T11:34:13;100527.88;;;15.01;100.00
13695;BME280;6919;52.344;14.518;2024-03-22T11:36:40;100523.09;;;14.89;100.00
13695;BME280;6919;52.344;14.518;2024-03-22T11:39:08;100518.69;;;15.10;100.00
13695;BME280;6919;52.344;14.518;2024-03-22T11:41:35;100508.50;;;14.98;100.00
13695;BME280;6919;52.344;14.518;2024-03-22T11:44:03;100510.91;;;14.93;100.00
13695;BME280;6919;52.344;14.518;2024-03-22T11:46:30;100511.03;;;14.99;100.00
13695;BME280;6919;52.344;14.518;2024-03-22T11:48:59;100506.84;;;15.55;100.00
13695;BME280;6919;52.344;14.518;2024-03-22T11:51:26;100500.81;;;15.88;100.00
13695;BME280;6919;52.344;14.518;2024-03-22T11:53:54;100491.84;;;16.02;100.00
13695;BME280;6919;52.344;14.518;2024-03-22T11:56:24;100481.47;;;16.27;100.00
13695;BME280;6919;52.344;14.518;2024-03-22T11:58:58;100479.22;;;15.74;100.00
13695;BME280;6919;52.344;14.518;2024-03-22T12:01:25;100481.59;;;15.62;100.00
13695;BME280;6919;52.344;14.518;2024-03-22T12:03:54;100479.81;;;15.69;100.00
13695;BME280;6919;52.344;14.518;2024-03-22T12:06:22;100470.25;;;15.52;100.00
13695;BME280;6919;52.344;14.518;2024-03-22T12:08:50;100465.19;;;15.64;100.00
13695;BME280;6919;52.344;14.518;2024-03-22T12:11:17;100471.63;;;15.98;100.00
13695;BME280;6919;52.344;14.518;2024-03-22T12:13:44;100474.31;;;15.98;100.00
13695;BME280;6919;52.344;14.518;2024-03-22T12:16:11;100458.63;;;16.08;100.00
13695;BME280;6919;52.344;14.518;2024-03-22T12:18:39;100456.44;;;16.18;100.00
13695;BME280;6919;52.344;14.518;2024-03-22T12:21:05;100451.63;;;16.41;100.00
13695;BME280;6919;52.344;14.518;2024-03-22T12:23:35;100448.75;;;16.43;100.00
13695;BME280;6919;52.344;14.518;2024-03-22T12:26:02;100451.31;;;16.09;100.00
13695;BME280;6919;52.344;14.518;2024-03-22T12:28:30;100452.75;;;16.26;100.00
13695;BME280;6919;52.344;14.518;2024-03-22T12:30:56;100438.97;;;16.00;100.00
13695;BME280;6919;52.344;14.518;2024-03-22T12:33:24;100437.16;;;16.28;100.00
13695;BME280;6919;52.344;14.518;2024-03-22T12:35:50;100450.25;;;16.45;100.00
13695;BME280;6919;52.344;14.518;2024-03-22T12:38:19;100437.41;;;16.54;100.00
13695;BME280;6919;52.344;14.518;2024-03-22T12:40:47;100436.56;;;16.53;100.00
13695;BME280;6919;52.344;14.518;2024-03-22T12:43:16;100433.00;;;16.80;100.00
13695;BME280;6919;52.344;14.518;2024-03-22T12:45:43;100432.84;;;16.33;100.00